sensor_id;sensor_type;location;lat;lon;timestamp;pressure;altitude;pressure_sealevel;temperature;humidity
77979;BME280;67169;50.268;8.694;2024-01-16T00:01:12;98888.56;;;-0.47;86.27
77979;BME280;67169;50.268;8.694;2024-01-16T00:03:40;98905.31;;;-0.50;86.66
77979;BME280;67169;50.268;8.694;2024-01-16T00:06:06;98907.88;;;-0.42;86.62
77979;BME280;67169;50.268;8.694;2024-01-16T00:08:33;98905.22;;;-0.39;86.70
77979;BME280;67169;50.268;8.694;2024-01-16T00:11:01;98912.28;;;-0.40;86.62
77979;BME280;67169;50.268;8.694;2024-01-16T00:13:28;98914.03;;;-0.40;86.65
77979;BME280;67169;50.268;8.694;2024-01-16T00:15:54;98918.44;;;-0.39;86.73
77979;BME280;67169;50.268;8.694;2024-01-16T00:18:23;98927.31;;;-0.53;87.09
77979;BME280;67169;50.268;8.694;2024-01-16T00:20:50;98914.25;;;-0.68;87.42
77979;BME280;67169;50.268;8.694;2024-01-16T00:23:16;98939.72;;;-0.64;87.66
77979;BME280;67169;50.268;8.694;2024-01-16T00:25:43;98904.75;;;-1.00;88.27
77979;BME280;67169;50.268;8.694;2024-01-16T00:28:09;98938.16;;;-0.96;89.15
77979;BME280;67169;50.268;8.694;2024-01-16T00:30:36;98943.47;;;-0.99;89.47
77979;BME280;67169;50.268;8.694;2024-01-16T00:33:03;98940.84;;;-1.03;89.83
77979;BME280;67169;50.268;8.694;2024-01-16T00:35:31;98948.72;;;-0.99;90.15
77979;BME280;67169;50.268;8.694;2024-01-16T00:37:57;98954.00;;;-0.99;90.47
77979;BME280;67169;50.268;8.694;2024-01-16T00:40:24;98948.72;;;-0.99;90.42
77979;BME280;67169;50.268;8.694;2024-01-16T00:42:50;98962.78;;;-0.95;90.95
77979;BME280;67169;50.268;8.694;2024-01-16T00:45:17;98971.59;;;-0.98;90.94
77979;BME280;67169;50.268;8.694;2024-01-16T00:47:43;98964.59;;;-1.05;90.99
77979;BME280;67169;50.268;8.694;2024-01-16T00:50:10;98969.84;;;-1.02;91.23
77979;BME280;67169;50.268;8.694;2024-01-16T00:52:38;98959.34;;;-1.11;91.49
77979;BME280;67169;50.268;8.694;2024-01-16T00:55:05;98969.03;;;-1.10;91.83
77979;BME280;67169;50.268;8.694;2024-01-16T00:57:31;98969.91;;;-1.12;92.26
77979;BME280;67169;50.268;8.694;2024-01-16T00:59:58;98971.66;;;-1.13;92.51
77979;BME280;67169;50.268;8.694;2024-01-16T01:02:25;98971.63;;;-1.07;92.70
77979;BME280;67169;50.268;8.694;2024-01-16T01:04:51;98948.84;;;-1.26;93.15
77979;BME280;67169;50.268;8.694;2024-01-16T01:07:18;98972.53;;;-1.12;93.49
77979;BME280;67169;50.268;8.694;2024-01-16T01:09:46;98979.59;;;-1.13;93.67
77979;BME280;67169;50.268;8.694;2024-01-16T01:12:12;98970.78;;;-1.15;93.89
77979;BME280;67169;50.268;8.694;2024-01-16T01:14:39;98971.69;;;-1.19;94.19
77979;BME280;67169;50.268;8.694;2024-01-16T01:17:06;98971.69;;;-1.22;94.26
77979;BME280;67169;50.268;8.694;2024-01-16T01:19:32;98976.97;;;-1.19;94.44
77979;BME280;67169;50.268;8.694;2024-01-16T01:21:59;98979.59;;;-1.17;94.36
77979;BME280;67169;50.268;8.694;2024-01-16T01:24:26;98968.19;;;-1.23;94.55
77979;BME280;67169;50.268;8.694;2024-01-16T01:26:54;98983.13;;;-1.22;94.46
77979;BME280;67169;50.268;8.694;2024-01-16T01:29:20;98985.78;;;-1.20;94.61
77979;BME280;67169;50.268;8.694;2024-01-16T01:31:47;98983.13;;;-1.18;94.43
77979;BME280;67169;50.268;8.694;2024-01-16T01:34:14;98992.78;;;-1.21;94.43
77979;BME280;67169;50.268;8.694;2024-01-16T01:36:41;98993.66;;;-1.15;94.19
77979;BME280;67169;50.268;8.694;2024-01-16T01:39:08;98983.97;;;-1.12;93.68
77979;BME280;67169;50.268;8.694;2024-01-16T01:41:36;98953.31;;;-1.44;93.92
77979;BME280;67169;50.268;8.694;2024-01-16T01:44:05;99005.09;;;-1.13;93.76
77979;BME280;67169;50.268;8.694;2024-01-16T01:46:32;99004.19;;;-1.08;93.66
77979;BME280;67169;50.268;8.694;2024-01-16T01:49:00;99005.91;;;-1.07;93.58
77979;BME280;67169;50.268;8.694;2024-01-16T01:51:28;99014.75;;;-1.03;93.37
77979;BME280;67169;50.268;8.694;2024-01-16T01:53:55;99005.94;;;-1.08;93.38
77979;BME280;67169;50.268;8.694;2024-01-16T01:56:23;99008.59;;;-1.11;93.33
77979;BME280;67169;50.268;8.694;2024-01-16T01:58:54;99013.03;;;-1.16;93.53
77979;BME280;67169;50.268;8.694;2024-01-16T02:01:25;99006.88;;;-1.23;93.47
77979;BME280;67169;50.268;8.694;2024-01-16T02:03:55;99016.53;;;-1.22;93.52
77979;BME280;67169;50.268;8.694;2024-01-16T02:06:22;99023.56;;;-1.20;93.73
77979;BME280;67169;50.268;8.694;2024-01-16T02:08:49;99020.94;;;-1.21;93.91
77979;BME280;67169;50.268;8.694;2024-01-16T02:11:15;99022.72;;;-1.23;93.95
77979;BME280;67169;50.268;8.694;2024-01-16T02:13:42;99029.72;;;-1.21;93.83
77979;BME280;67169;50.268;8.694;2024-01-16T02:16:17;99010.41;;;-1.30;93.90
77979;BME280;67169;50.268;8.694;2024-01-16T02:18:45;99016.53;;;-1.19;94.02
77979;BME280;67169;50.268;8.694;2024-01-16T02:21:15;99021.78;;;-1.17;94.08
77979;BME280;67169;50.268;8.694;2024-01-16T02:23:45;99014.78;;;-1.18;93.93
77979;BME280;67169;50.268;8.694;2024-01-16T02:26:12;99040.22;;;-1.07;93.74
77979;BME280;67169;50.268;8.694;2024-01-16T02:28:40;99033.22;;;-1.03;93.85
77979;BME280;67169;50.268;8.694;2024-01-16T02:31:07;99029.66;;;-1.04;93.90
77979;BME280;67169;50.268;8.694;2024-01-16T02:33:33;99030.56;;;-1.03;93.82
77979;BME280;67169;50.268;8.694;2024-01-16T02:35:59;99033.22;;;-1.06;93.90
77979;BME280;67169;50.268;8.694;2024-01-16T02:38:26;99028.78;;;-1.07;93.58
77979;BME280;67169;50.268;8.694;2024-01-16T02:40:54;99007.75;;;-1.20;93.68
77979;BME280;67169;50.268;8.694;2024-01-16T02:43:21;99011.25;;;-1.14;93.67
77979;BME280;67169;50.268;8.694;2024-01-16T02:45:48;99024.44;;;-1.16;93.63
77979;BME280;67169;50.268;8.694;2024-01-16T02:48:14;99014.78;;;-1.17;93.63
77979;BME280;67169;50.268;8.694;2024-01-16T02:50:41;99020.00;;;-1.05;93.50
77979;BME280;67169;50.268;8.694;2024-01-16T02:53:08;99022.66;;;-1.11;93.40
77979;BME280;67169;50.268;8.694;2024-01-16T02:55:34;99027.09;;;-1.13;93.51
77979;BME280;67169;50.268;8.694;2024-01-16T02:58:02;99044.66;;;-1.09;93.31
77979;BME280;67169;50.268;8.694;2024-01-16T03:00:29;99031.44;;;-1.06;93.38
77979;BME280;67169;50.268;8.694;2024-01-16T03:02:56;99034.94;;;-1.07;93.57
77979;BME280;67169;50.268;8.694;2024-01-16T03:05:22;99040.25;;;-1.05;93.57
77979;BME280;67169;50.268;8.694;2024-01-16T03:07:49;99033.25;;;-1.17;93.64
77979;BME280;67169;50.268;8.694;2024-01-16T03:10:16;99051.66;;;-1.05;93.86
77979;BME280;67169;50.268;8.694;2024-01-16T03:12:42;99041.16;;;-1.15;94.18
77979;BME280;67169;50.268;8.694;2024-01-16T03:15:10;99056.09;;;-1.10;94.36
77979;BME280;67169;50.268;8.694;2024-01-16T03:17:37;99066.63;;;-1.05;94.48
77979;BME280;67169;50.268;8.694;2024-01-16T03:20:05;99025.38;;;-1.35;94.62
77979;BME280;67169;50.268;8.694;2024-01-16T03:22:32;99068.38;;;-1.10;95.15
77979;BME280;67169;50.268;8.694;2024-01-16T03:24:59;99073.69;;;-1.09;95.35
77979;BME280;67169;50.268;8.694;2024-01-16T03:27:25;99069.28;;;-1.13;95.68
77979;BME280;67169;50.268;8.694;2024-01-16T03:29:52;99071.94;;;-1.10;95.94
77979;BME280;67169;50.268;8.694;2024-01-16T03:32:20;99062.25;;;-1.18;96.17
77979;BME280;67169;50.268;8.694;2024-01-16T03:34:46;99075.47;;;-1.17;96.32
77979;BME280;67169;50.268;8.694;2024-01-16T03:37:13;99072.78;;;-1.14;96.50
77979;BME280;67169;50.268;8.694;2024-01-16T03:39:39;99075.44;;;-1.11;96.53
77979;BME280;67169;50.268;8.694;2024-01-16T03:42:06;99070.16;;;-1.08;96.70
77979;BME280;67169;50.268;8.694;2024-01-16T03:44:33;99074.53;;;-1.07;97.04
77979;BME280;67169;50.268;8.694;2024-01-16T03:46:59;99069.28;;;-1.10;96.92
77979;BME280;67169;50.268;8.694;2024-01-16T03:49:27;99068.41;;;-1.06;96.90
77979;BME280;67169;50.268;8.694;2024-01-16T03:51:54;99071.88;;;-1.07;96.73
77979;BME280;67169;50.268;8.694;2024-01-16T03:54:20;99057.00;;;-1.25;96.78
77979;BME280;67169;50.268;8.694;2024-01-16T03:56:47;99061.41;;;-1.25;96.67
77979;BME280;67169;50.268;8.694;2024-01-16T03:59:13;99081.59;;;-1.18;96.54
77979;BME280;67169;50.268;8.694;2024-01-16T04:01:40;99078.97;;;-1.18;96.62
77979;BME280;67169;50.268;8.694;2024-01-16T04:04:08;99057.91;;;-1.33;96.69
77979;BME280;67169;50.268;8.694;2024-01-16T04:06:37;99079.00;;;-1.27;96.79
77979;BME280;67169;50.268;8.694;2024-01-16T04:09:05;99052.63;;;-1.39;96.37
77979;BME280;67169;50.268;8.694;2024-01-16T04:11:31;99082.50;;;-1.27;96.54
77979;BME280;67169;50.268;8.694;2024-01-16T04:13:58;99086.03;;;-1.23;96.11
77979;BME280;67169;50.268;8.694;2024-01-16T04:16:24;99081.63;;;-1.27;96.04
77979;BME280;67169;50.268;8.694;2024-01-16T04:18:52;99066.69;;;-1.34;95.75
77979;BME280;67169;50.268;8.694;2024-01-16T04:21:18;99069.31;;;-1.28;95.96
77979;BME280;67169;50.268;8.694;2024-01-16T04:23:46;99076.34;;;-1.24;95.71
77979;BME280;67169;50.268;8.694;2024-01-16T04:26:13;99070.19;;;-1.29;95.60
77979;BME280;67169;50.268;8.694;2024-01-16T04:28:39;99077.22;;;-1.25;95.62
77979;BME280;67169;50.268;8.694;2024-01-16T04:31:06;99085.13;;;-1.22;95.33
77979;BME280;67169;50.268;8.694;2024-01-16T04:33:33;99078.09;;;-1.22;95.15
77979;BME280;67169;50.268;8.694;2024-01-16T04:36:00;99077.19;;;-1.17;94.94
77979;BME280;67169;50.268;8.694;2024-01-16T04:38:27;99078.97;;;-1.15;94.81
77979;BME280;67169;50.268;8.694;2024-01-16T04:40:55;99064.03;;;-1.19;94.62
77979;BME280;67169;50.268;8.694;2024-01-16T04:43:22;99068.41;;;-1.15;94.59
77979;BME280;67169;50.268;8.694;2024-01-16T04:45:48;99065.78;;;-1.18;94.50
77979;BME280;67169;50.268;8.694;2024-01-16T04:48:15;99069.28;;;-1.14;94.37
77979;BME280;67169;50.268;8.694;2024-01-16T04:50:42;99074.56;;;-1.11;94.17
77979;BME280;67169;50.268;8.694;2024-01-16T04:53:10;99067.50;;;-1.14;94.08
77979;BME280;67169;50.268;8.694;2024-01-16T04:55:37;99071.88;;;-1.07;93.83
77979;BME280;67169;50.268;8.694;2024-01-16T04:58:05;99070.16;;;-1.11;93.72
77979;BME280;67169;50.268;8.694;2024-01-16T05:00:32;99067.53;;;-1.15;93.82
77979;BME280;67169;50.268;8.694;2024-01-16T05:02:59;99071.94;;;-1.10;93.82
77979;BME280;67169;50.268;8.694;2024-01-16T05:05:26;99072.81;;;-1.15;93.96
77979;BME280;67169;50.268;8.694;2024-01-16T05:07:52;99078.09;;;-1.20;94.07
77979;BME280;67169;50.268;8.694;2024-01-16T05:10:19;99071.94;;;-1.25;94.38
77979;BME280;67169;50.268;8.694;2024-01-16T05:12:45;99076.38;;;-1.27;94.59
77979;BME280;67169;50.268;8.694;2024-01-16T05:15:13;99075.47;;;-1.29;95.04
77979;BME280;67169;50.268;8.694;2024-01-16T05:17:40;99075.47;;;-1.41;95.57
77979;BME280;67169;50.268;8.694;2024-01-16T05:20:08;99057.94;;;-1.55;95.85
77979;BME280;67169;50.268;8.694;2024-01-16T05:22:35;99080.78;;;-1.46;96.32
77979;BME280;67169;50.268;8.694;2024-01-16T05:25:04;99074.63;;;-1.44;96.77
77979;BME280;67169;50.268;8.694;2024-01-16T05:27:32;99069.34;;;-1.45;97.27
77979;BME280;67169;50.268;8.694;2024-01-16T05:29:58;99071.09;;;-1.47;97.49
77979;BME280;67169;50.268;8.694;2024-01-16T05:32:27;99062.31;;;-1.49;97.81
77979;BME280;67169;50.268;8.694;2024-01-16T05:34:53;99066.69;;;-1.48;98.02
77979;BME280;67169;50.268;8.694;2024-01-16T05:37:20;99062.31;;;-1.49;98.21
77979;BME280;67169;50.268;8.694;2024-01-16T05:39:46;99054.41;;;-1.54;98.24
77979;BME280;67169;50.268;8.694;2024-01-16T05:42:14;99058.81;;;-1.51;98.38
77979;BME280;67169;50.268;8.694;2024-01-16T05:44:41;99059.66;;;-1.52;98.47
77979;BME280;67169;50.268;8.694;2024-01-16T05:47:07;99064.97;;;-1.54;98.34
77979;BME280;67169;50.268;8.694;2024-01-16T05:49:35;99057.03;;;-1.55;98.47
77979;BME280;67169;50.268;8.694;2024-01-16T05:54:44;99045.63;;;-1.54;98.45
77979;BME280;67169;50.268;8.694;2024-01-16T05:57:11;99044.75;;;-1.50;98.54
77979;BME280;67169;50.268;8.694;2024-01-16T05:59:37;99043.00;;;-1.51;98.63
77979;BME280;67169;50.268;8.694;2024-01-16T06:02:04;99036.84;;;-1.53;98.46
77979;BME280;67169;50.268;8.694;2024-01-16T06:04:30;99041.22;;;-1.48;98.23
77979;BME280;67169;50.268;8.694;2024-01-16T06:06:58;99005.22;;;-1.61;97.84
77979;BME280;67169;50.268;8.694;2024-01-16T06:09:24;99021.00;;;-1.44;97.80
77979;BME280;67169;50.268;8.694;2024-01-16T06:11:51;99027.13;;;-1.34;97.47
77979;BME280;67169;50.268;8.694;2024-01-16T06:14:17;99027.09;;;-1.25;96.77
77979;BME280;67169;50.268;8.694;2024-01-16T06:16:47;99020.91;;;-1.18;96.08
77979;BME280;67169;50.268;8.694;2024-01-16T06:19:13;99019.16;;;-1.10;95.25
77979;BME280;67169;50.268;8.694;2024-01-16T06:21:40;98990.13;;;-1.13;94.67
77979;BME280;67169;50.268;8.694;2024-01-16T06:24:08;99006.81;;;-1.05;94.11
77979;BME280;67169;50.268;8.694;2024-01-16T06:26:36;98993.66;;;-1.09;93.51
77979;BME280;67169;50.268;8.694;2024-01-16T06:29:03;98998.88;;;-0.99;92.76
77979;BME280;67169;50.268;8.694;2024-01-16T06:31:29;98988.34;;;-1.03;92.55
77979;BME280;67169;50.268;8.694;2024-01-16T06:33:56;98990.13;;;-1.14;92.35
77979;BME280;67169;50.268;8.694;2024-01-16T06:36:23;98963.03;;;-1.58;92.74
77979;BME280;67169;50.268;8.694;2024-01-16T06:38:49;98990.25;;;-1.59;93.01
77979;BME280;67169;50.268;8.694;2024-01-16T06:41:17;98988.53;;;-1.80;93.48
77979;BME280;67169;50.268;8.694;2024-01-16T06:43:44;98996.44;;;-1.91;93.75
77979;BME280;67169;50.268;8.694;2024-01-16T06:46:10;99000.84;;;-1.99;94.10
77979;BME280;67169;50.268;8.694;2024-01-16T06:48:37;98987.66;;;-2.08;94.36
77979;BME280;67169;50.268;8.694;2024-01-16T06:51:04;98992.94;;;-2.11;94.48
77979;BME280;67169;50.268;8.694;2024-01-16T06:53:31;98985.03;;;-2.16;94.71
77979;BME280;67169;50.268;8.694;2024-01-16T06:55:57;98998.19;;;-2.14;94.75
77979;BME280;67169;50.268;8.694;2024-01-16T06:58:25;98994.72;;;-2.16;94.96
77979;BME280;67169;50.268;8.694;2024-01-16T07:00:52;98989.44;;;-2.16;95.18
77979;BME280;67169;50.268;8.694;2024-01-16T07:03:18;98998.22;;;-2.26;95.38
77979;BME280;67169;50.268;8.694;2024-01-16T07:05:45;99008.75;;;-2.29;95.31
77979;BME280;67169;50.268;8.694;2024-01-16T07:08:12;98992.03;;;-2.42;95.48
77979;BME280;67169;50.268;8.694;2024-01-16T07:10:38;99009.56;;;-2.52;95.54
77979;BME280;67169;50.268;8.694;2024-01-16T07:13:05;99025.38;;;-2.43;95.94
77979;BME280;67169;50.268;8.694;2024-01-16T07:15:34;99023.63;;;-2.44;95.76
77979;BME280;67169;50.268;8.694;2024-01-16T07:18:00;98970.97;;;-2.60;95.64
77979;BME280;67169;50.268;8.694;2024-01-16T07:20:27;99044.72;;;-2.21;95.36
77979;BME280;67169;50.268;8.694;2024-01-16T07:22:53;99022.78;;;-2.32;95.42
77979;BME280;67169;50.268;8.694;2024-01-16T07:25:20;99041.25;;;-2.12;95.11
77979;BME280;67169;50.268;8.694;2024-01-16T07:27:46;99028.94;;;-2.30;95.14
77979;BME280;67169;50.268;8.694;2024-01-16T07:30:15;99012.19;;;-2.55;95.17
77979;BME280;67169;50.268;8.694;2024-01-16T07:32:43;99052.63;;;-2.41;95.46
77979;BME280;67169;50.268;8.694;2024-01-16T07:35:10;99042.94;;;-2.45;95.55
77979;BME280;67169;50.268;8.694;2024-01-16T07:37:36;99044.72;;;-2.41;95.56
77979;BME280;67169;50.268;8.694;2024-01-16T07:40:04;99045.56;;;-2.48;95.44
77979;BME280;67169;50.268;8.694;2024-01-16T07:42:31;99047.31;;;-2.50;95.68
77979;BME280;67169;50.268;8.694;2024-01-16T07:44:59;99049.94;;;-2.54;95.83
77979;BME280;67169;50.268;8.694;2024-01-16T07:47:26;99058.72;;;-2.52;95.77
77979;BME280;67169;50.268;8.694;2024-01-16T07:49:54;99053.44;;;-2.57;95.96
77979;BME280;67169;50.268;8.694;2024-01-16T07:52:20;99057.81;;;-2.59;96.00
77979;BME280;67169;50.268;8.694;2024-01-16T07:54:47;99056.03;;;-2.63;96.01
77979;BME280;67169;50.268;8.694;2024-01-16T07:57:13;99064.81;;;-2.64;96.11
77979;BME280;67169;50.268;8.694;2024-01-16T07:59:40;99068.31;;;-2.65;96.14
77979;BME280;67169;50.268;8.694;2024-01-16T08:02:07;99080.63;;;-2.61;96.24
77979;BME280;67169;50.268;8.694;2024-01-16T08:04:34;99060.41;;;-2.70;96.20
77979;BME280;67169;50.268;8.694;2024-01-16T08:07:02;99070.03;;;-2.73;96.35
77979;BME280;67169;50.268;8.694;2024-01-16T08:09:29;99063.88;;;-2.75;96.51
77979;BME280;67169;50.268;8.694;2024-01-16T08:11:55;99047.22;;;-2.80;96.30
77979;BME280;67169;50.268;8.694;2024-01-16T08:14:22;99065.66;;;-2.74;96.35
77979;BME280;67169;50.268;8.694;2024-01-16T08:16:49;99074.47;;;-2.68;96.20
77979;BME280;67169;50.268;8.694;2024-01-16T08:19:16;99073.59;;;-2.62;96.37
77979;BME280;67169;50.268;8.694;2024-01-16T08:21:42;99079.75;;;-2.61;96.08
77979;BME280;67169;50.268;8.694;2024-01-16T08:24:10;99068.34;;;-2.57;96.08
77979;BME280;67169;50.268;8.694;2024-01-16T08:26:37;99080.69;;;-2.47;96.12
77979;BME280;67169;50.268;8.694;2024-01-16T08:29:04;99073.66;;;-2.47;96.22
77979;BME280;67169;50.268;8.694;2024-01-16T08:31:31;99083.31;;;-2.41;95.93
77979;BME280;67169;50.268;8.694;2024-01-16T08:33:58;99070.16;;;-2.40;95.77
77979;BME280;67169;50.268;8.694;2024-01-16T08:36:24;99084.22;;;-2.28;95.55
77979;BME280;67169;50.268;8.694;2024-01-16T08:38:51;99079.88;;;-2.20;95.39
77979;BME280;67169;50.268;8.694;2024-01-16T08:41:19;99077.22;;;-2.16;95.20
77979;BME280;67169;50.268;8.694;2024-01-16T08:43:45;99078.97;;;-2.10;94.98
77979;BME280;67169;50.268;8.694;2024-01-16T08:46:12;99085.16;;;-1.94;94.83
77979;BME280;67169;50.268;8.694;2024-01-16T08:48:38;99087.81;;;-1.85;94.70
77979;BME280;67169;50.268;8.694;2024-01-16T08:51:08;99077.25;;;-1.80;94.51
77979;BME280;67169;50.268;8.694;2024-01-16T08:53:37;99074.63;;;-1.63;94.13
77979;BME280;67169;50.268;8.694;2024-01-16T08:56:03;99077.28;;;-1.57;93.96
77979;BME280;67169;50.268;8.694;2024-01-16T08:58:33;99072.00;;;-1.79;93.67
77979;BME280;67169;50.268;8.694;2024-01-16T09:01:03;99075.53;;;-1.64;93.67
77979;BME280;67169;50.268;8.694;2024-01-16T09:03:30;99070.22;;;-1.72;93.31
77979;BME280;67169;50.268;8.694;2024-01-16T09:05:56;99043.88;;;-1.84;93.38
77979;BME280;67169;50.268;8.694;2024-01-16T09:08:23;99071.09;;;-1.73;93.30
77979;BME280;67169;50.268;8.694;2024-01-16T09:10:51;99052.66;;;-1.79;93.26
77979;BME280;67169;50.268;8.694;2024-01-16T09:13:18;99064.06;;;-1.76;92.65
77979;BME280;67169;50.268;8.694;2024-01-16T09:15:47;99071.97;;;-1.86;92.90
77979;BME280;67169;50.268;8.694;2024-01-16T09:18:14;99088.69;;;-1.95;92.88
77979;BME280;67169;50.268;8.694;2024-01-16T09:20:41;99073.75;;;-1.79;92.61
77979;BME280;67169;50.268;8.694;2024-01-16T09:23:08;99084.31;;;-1.55;92.49
77979;BME280;67169;50.268;8.694;2024-01-16T09:25:34;99075.50;;;-1.48;92.12
77979;BME280;67169;50.268;8.694;2024-01-16T09:28:01;99074.63;;;-1.59;91.83
77979;BME280;67169;50.268;8.694;2024-01-16T09:30:28;99089.56;;;-1.73;91.92
77979;BME280;67169;50.268;8.694;2024-01-16T09:32:56;99086.06;;;-1.84;92.03
77979;BME280;67169;50.268;8.694;2024-01-16T09:35:23;99098.34;;;-1.77;91.80
77979;BME280;67169;50.268;8.694;2024-01-16T09:37:49;99084.28;;;-1.92;91.80
77979;BME280;67169;50.268;8.694;2024-01-16T09:40:16;99108.91;;;-1.54;91.80
77979;BME280;67169;50.268;8.694;2024-01-16T09:42:43;99101.84;;;-1.55;91.44
77979;BME280;67169;50.268;8.694;2024-01-16T09:45:10;99097.50;;;-1.58;91.34
77979;BME280;67169;50.268;8.694;2024-01-16T09:47:37;99107.16;;;-1.48;91.19
77979;BME280;67169;50.268;8.694;2024-01-16T09:50:06;99105.38;;;-1.35;91.06
77979;BME280;67169;50.268;8.694;2024-01-16T09:52:33;99122.97;;;-1.31;90.89
77979;BME280;67169;50.268;8.694;2024-01-16T09:54:59;99117.69;;;-1.45;90.76
77979;BME280;67169;50.268;8.694;2024-01-16T09:57:27;99097.47;;;-1.52;90.52
77979;BME280;67169;50.268;8.694;2024-01-16T09:59:55;99119.44;;;-1.25;90.62
77979;BME280;67169;50.268;8.694;2024-01-16T10:02:23;99108.88;;;-1.13;90.00
77979;BME280;67169;50.268;8.694;2024-01-16T10:04:50;99114.13;;;-1.02;89.81
77979;BME280;67169;50.268;8.694;2024-01-16T10:07:18;99102.72;;;-1.18;89.85
77979;BME280;67169;50.268;8.694;2024-01-16T10:09:51;99104.47;;;-1.09;89.70
77979;BME280;67169;50.268;8.694;2024-01-16T10:12:17;99106.22;;;-1.17;89.74
77979;BME280;67169;50.268;8.694;2024-01-16T10:14:44;99101.84;;;-1.29;89.59
77979;BME280;67169;50.268;8.694;2024-01-16T10:17:12;99108.91;;;-1.33;89.43
77979;BME280;67169;50.268;8.694;2024-01-16T10:19:49;99101.84;;;-1.26;89.69
77979;BME280;67169;50.268;8.694;2024-01-16T10:22:21;99100.97;;;-1.22;89.53
77979;BME280;67169;50.268;8.694;2024-01-16T10:24:49;99098.31;;;-1.34;89.42
77979;BME280;67169;50.268;8.694;2024-01-16T10:27:16;99095.72;;;-1.47;89.54
77979;BME280;67169;50.268;8.694;2024-01-16T10:29:54;99090.44;;;-1.39;89.52
77979;BME280;67169;50.268;8.694;2024-01-16T10:32:28;99093.06;;;-1.36;89.56
77979;BME280;67169;50.268;8.694;2024-01-16T10:35:05;99092.19;;;-1.32;89.72
77979;BME280;67169;50.268;8.694;2024-01-16T10:37:44;99087.78;;;-1.27;89.75
77979;BME280;67169;50.268;8.694;2024-01-16T10:40:15;99050.88;;;-1.53;90.05
77979;BME280;67169;50.268;8.694;2024-01-16T10:42:41;99098.28;;;-0.99;89.77
77979;BME280;67169;50.268;8.694;2024-01-16T10:45:08;99084.19;;;-0.97;89.58
77979;BME280;67169;50.268;8.694;2024-01-16T10:47:35;99071.91;;;-1.05;89.22
77979;BME280;67169;50.268;8.694;2024-01-16T10:50:03;99073.59;;;-0.78;89.09
77979;BME280;67169;50.268;8.694;2024-01-16T10:52:33;99082.44;;;-1.01;89.23
77979;BME280;67169;50.268;8.694;2024-01-16T10:55:03;99078.94;;;-1.03;88.92
77979;BME280;67169;50.268;8.694;2024-01-16T10:57:31;99074.59;;;-1.24;88.96
77979;BME280;67169;50.268;8.694;2024-01-16T11:00:02;99081.56;;;-0.95;88.86
77979;BME280;67169;50.268;8.694;2024-01-16T11:02:34;99066.59;;;-0.98;88.69
77979;BME280;67169;50.268;8.694;2024-01-16T11:05:04;99070.06;;;-0.79;88.47
77979;BME280;67169;50.268;8.694;2024-01-16T11:07:32;99069.22;;;-0.91;88.04
77979;BME280;67169;50.268;8.694;2024-01-16T11:10:02;99064.84;;;-1.02;88.19
77979;BME280;67169;50.268;8.694;2024-01-16T11:12:28;99063.94;;;-0.93;87.94
77979;BME280;67169;50.268;8.694;2024-01-16T11:14:58;99060.41;;;-0.87;87.82
77979;BME280;67169;50.268;8.694;2024-01-16T11:17:26;99055.03;;;-0.69;87.39
77979;BME280;67169;50.268;8.694;2024-01-16T11:19:53;99048.94;;;-0.80;87.61
77979;BME280;67169;50.268;8.694;2024-01-16T11:22:21;99026.06;;;-0.78;87.50
77979;BME280;67169;50.268;8.694;2024-01-16T11:27:43;99035.63;;;-0.59;87.38
77979;BME280;67169;50.268;8.694;2024-01-16T11:30:11;99033.00;;;-0.57;87.35
77979;BME280;67169;50.268;8.694;2024-01-16T11:32:39;99019.03;;;-0.87;87.18
77979;BME280;67169;50.268;8.694;2024-01-16T11:35:06;99026.06;;;-0.81;87.35
77979;BME280;67169;50.268;8.694;2024-01-16T11:37:33;98989.13;;;-0.87;87.19
77979;BME280;67169;50.268;8.694;2024-01-16T11:40:22;98993.47;;;-0.74;87.11
77979;BME280;67169;50.268;8.694;2024-01-16T11:42:52;99004.00;;;-0.73;87.08
77979;BME280;67169;50.268;8.694;2024-01-16T11:45:48;99004.00;;;-0.66;87.21
77979;BME280;67169;50.268;8.694;2024-01-16T11:48:18;99006.69;;;-0.80;87.00
77979;BME280;67169;50.268;8.694;2024-01-16T11:50:46;98986.38;;;-0.61;86.96
77979;BME280;67169;50.268;8.694;2024-01-16T11:53:33;98969.56;;;-0.53;86.56
77979;BME280;67169;50.268;8.694;2024-01-16T11:56:15;98981.00;;;-0.52;86.52
77979;BME280;67169;50.268;8.694;2024-01-16T11:58:57;98963.44;;;-0.55;86.68
77979;BME280;67169;50.268;8.694;2024-01-16T12:01:27;98982.56;;;-0.19;86.47
77979;BME280;67169;50.268;8.694;2024-01-16T12:04:02;98950.97;;;-0.33;85.98
77979;BME280;67169;50.268;8.694;2024-01-16T12:06:28;98956.28;;;-0.42;85.70
77979;BME280;67169;50.268;8.694;2024-01-16T12:09:10;98965.63;;;0.05;85.56
77979;BME280;67169;50.268;8.694;2024-01-16T12:11:37;98921.72;;;-0.14;84.89
77979;BME280;67169;50.268;8.694;2024-01-16T12:14:05;98946.19;;;0.09;84.68
77979;BME280;67169;50.268;8.694;2024-01-16T12:16:32;98954.81;;;0.30;84.10
77979;BME280;67169;50.268;8.694;2024-01-16T12:19:04;98933.97;;;-0.03;83.77
77979;BME280;67169;50.268;8.694;2024-01-16T12:21:33;98946.88;;;0.31;83.48
77979;BME280;67169;50.268;8.694;2024-01-16T12:24:00;98927.50;;;0.29;83.04
77979;BME280;67169;50.268;8.694;2024-01-16T12:26:26;98927.94;;;0.68;82.73
77979;BME280;67169;50.268;8.694;2024-01-16T12:28:53;98933.53;;;0.42;82.05
77979;BME280;67169;50.268;8.694;2024-01-16T12:31:21;98910.66;;;0.36;81.71
77979;BME280;67169;50.268;8.694;2024-01-16T12:33:48;98919.25;;;0.57;81.43
77979;BME280;67169;50.268;8.694;2024-01-16T12:36:15;98930.34;;;0.88;80.78
77979;BME280;67169;50.268;8.694;2024-01-16T12:38:42;98918.06;;;0.84;80.42
77979;BME280;67169;50.268;8.694;2024-01-16T12:41:10;98902.88;;;0.98;79.63
77979;BME280;67169;50.268;8.694;2024-01-16T12:43:41;98810.06;;;0.45;79.20
77979;BME280;67169;50.268;8.694;2024-01-16T12:46:11;98896.81;;;0.88;78.66
77979;BME280;67169;50.268;8.694;2024-01-16T12:48:39;98912.28;;;1.19;78.24
77979;BME280;67169;50.268;8.694;2024-01-16T12:51:06;98909.09;;;1.56;77.66
77979;BME280;67169;50.268;8.694;2024-01-16T12:53:33;98899.59;;;1.97;76.42
77979;BME280;67169;50.268;8.694;2024-01-16T12:56:02;98883.94;;;2.76;73.89
77979;BME280;67169;50.268;8.694;2024-01-16T12:58:32;98882.72;;;3.29;72.77
77979;BME280;67169;50.268;8.694;2024-01-16T13:01:24;98858.88;;;4.32;69.60
77979;BME280;67169;50.268;8.694;2024-01-16T13:03:52;98849.94;;;2.92;69.63
77979;BME280;67169;50.268;8.694;2024-01-16T13:06:19;98870.69;;;3.52;69.68
77979;BME280;67169;50.268;8.694;2024-01-16T13:08:46;98862.63;;;3.91;68.34